createdAt,value
2019-06-07T00:01:19.295Z,13.98
2019-06-07T00:03:48.752Z,15.80
2019-06-07T00:06:23.917Z,14.18
2019-06-07T00:08:51.195Z,12.45
2019-06-07T00:11:21.437Z,13.10
2019-06-07T00:13:53.395Z,9.40
2019-06-07T00:16:23.731Z,7.97
2019-06-07T00:18:54.905Z,8.48
2019-06-07T00:22:12.314Z,8.43
2019-06-07T00:23:57.274Z,6.60
2019-06-07T00:26:27.586Z,6.70
2019-06-07T00:28:57.974Z,6.08
2019-06-07T00:31:28.170Z,6.45
2019-06-07T00:33:58.517Z,6.08
2019-06-07T00:36:28.803Z,5.80
2019-06-07T00:38:59.005Z,5.70
2019-06-07T00:41:29.344Z,6.83
2019-06-07T00:43:59.599Z,6.25
2019-06-07T00:46:29.885Z,7.25
2019-06-07T00:49:00.155Z,7.17
2019-06-07T00:51:49.458Z,7.37
2019-06-07T00:54:02.592Z,6.72
2019-06-07T00:56:32.939Z,7.35
2019-06-07T00:59:11.323Z,6.60
2019-06-07T01:01:35.092Z,7.92
2019-06-07T01:04:05.443Z,8.45
2019-06-07T01:06:35.741Z,8.00
2019-06-07T01:09:07.928Z,8.10
2019-06-07T01:11:38.147Z,7.58
2019-06-07T01:14:08.500Z,7.60
2019-06-07T01:16:56.390Z,8.08
2019-06-07T01:19:10.932Z,6.58
2019-06-07T01:21:41.195Z,6.92
2019-06-07T01:24:12.601Z,6.78
2019-06-07T01:26:43.048Z,7.72
2019-06-07T01:29:13.361Z,7.75
2019-06-07T01:31:45.248Z,6.58
2019-06-07T01:34:16.117Z,6.58
2019-06-07T01:36:46.516Z,6.37
2019-06-07T01:39:16.709Z,6.67
2019-06-07T01:41:46.981Z,7.22
2019-06-07T01:44:18.517Z,8.43
2019-06-07T01:46:49.440Z,7.28
2019-06-07T01:49:19.769Z,9.30
2019-06-07T01:51:50.161Z,7.97
2019-06-07T01:54:53.151Z,8.60
2019-06-07T01:56:52.491Z,9.10
2019-06-07T01:59:23.687Z,9.00
2019-06-07T02:01:54.957Z,8.25
2019-06-07T02:04:29.312Z,9.55
2019-06-07T02:06:57.120Z,9.55
2019-06-07T02:09:29.849Z,8.30
2019-06-07T02:11:59.591Z,7.40
2019-06-07T02:14:32.997Z,7.17
2019-06-07T02:17:01.958Z,9.95
2019-06-07T02:19:33.368Z,7.30
2019-06-07T02:22:03.967Z,9.50
2019-06-07T02:24:35.915Z,9.10
2019-06-07T02:27:07.245Z,8.85
2019-06-07T02:29:37.524Z,8.53
2019-06-07T02:32:07.762Z,8.20
2019-06-07T02:34:39.766Z,8.93
2019-06-07T02:37:10.130Z,7.80
2019-06-07T02:39:41.220Z,8.45
2019-06-07T02:42:11.823Z,8.43
2019-06-07T02:44:42.101Z,7.67
2019-06-07T02:47:12.483Z,6.30
2019-06-07T02:49:44.561Z,7.17
2019-06-07T02:52:14.710Z,9.58
2019-06-07T02:54:46.165Z,9.13
2019-06-07T02:57:16.572Z,8.05
2019-06-07T03:00:06.463Z,6.80
2019-06-07T03:02:18.962Z,7.62
2019-06-07T03:04:49.922Z,6.50
2019-06-07T03:07:21.192Z,8.25
2019-06-07T03:09:52.099Z,9.78
2019-06-07T03:12:23.163Z,8.10
2019-06-07T03:14:54.443Z,7.78
2019-06-07T03:17:40.211Z,7.53
2019-06-07T03:20:11.200Z,7.00
2019-06-07T03:22:43.229Z,7.72
2019-06-07T03:25:13.728Z,7.60
2019-06-07T03:27:49.814Z,7.00
2019-06-07T03:30:38.911Z,7.05
2019-06-07T03:32:48.674Z,7.08
2019-06-07T03:35:19.322Z,6.92
2019-06-07T03:37:49.587Z,6.97
2019-06-07T03:40:19.861Z,7.25
2019-06-07T03:42:50.040Z,7.65
2019-06-07T03:45:20.268Z,8.53
2019-06-07T03:47:50.667Z,9.15
2019-06-07T03:50:20.936Z,8.65
2019-06-07T03:52:51.663Z,9.15
2019-06-07T03:55:21.902Z,8.78
2019-06-07T04:00:24.323Z,9.25
2019-06-07T04:02:54.728Z,8.28
2019-06-07T04:05:25.000Z,7.97
2019-06-07T04:07:55.288Z,9.45
2019-06-07T04:10:44.653Z,9.03
2019-06-07T04:12:57.560Z,9.00
2019-06-07T04:15:28.153Z,8.08
2019-06-07T04:18:02.225Z,9.53
2019-06-07T04:20:32.901Z,7.62
2019-06-07T04:23:02.459Z,8.35
2019-06-07T04:25:35.630Z,7.95
2019-06-07T04:28:04.755Z,6.95
2019-06-07T04:30:41.821Z,8.63
2019-06-07T04:33:13.064Z,8.88
2019-06-07T04:35:45.322Z,9.05
2019-06-07T04:38:16.016Z,9.98
2019-06-07T04:40:47.232Z,8.93
2019-06-07T04:43:17.432Z,8.80
2019-06-07T04:45:51.158Z,7.72
2019-06-07T04:48:22.042Z,7.60
2019-06-07T04:50:54.671Z,8.35
2019-06-07T04:53:25.052Z,7.83
2019-06-07T04:55:55.619Z,6.95
2019-06-07T04:58:25.939Z,6.78
2019-06-07T05:01:02.847Z,6.85
2019-06-07T05:03:30.525Z,7.30
2019-06-07T05:06:00.165Z,8.58
2019-06-07T05:08:31.994Z,7.40
2019-06-07T05:11:02.351Z,8.08
2019-06-07T05:13:37.865Z,8.78
2019-06-07T05:16:04.797Z,9.43
2019-06-07T05:18:36.306Z,9.20
2019-06-07T05:21:07.064Z,10.28
2019-06-07T05:26:09.590Z,8.90
2019-06-07T05:28:42.844Z,9.45
2019-06-07T05:31:12.388Z,11.03
2019-06-07T05:33:43.580Z,12.65
2019-06-07T05:36:14.496Z,8.45
2019-06-07T05:38:45.223Z,11.30
2019-06-07T05:41:15.951Z,11.70
2019-06-07T05:44:01.881Z,8.88
2019-06-07T05:46:18.523Z,8.68
2019-06-07T05:48:48.735Z,8.10
2019-06-07T05:51:19.184Z,9.38
2019-06-07T05:53:49.472Z,9.68
2019-06-07T05:56:19.768Z,9.53
2019-06-07T05:58:50.024Z,9.13
2019-06-07T06:03:53.435Z,9.15
2019-06-07T06:06:23.783Z,8.15
2019-06-07T06:09:12.823Z,8.53
2019-06-07T06:11:42.950Z,8.30
2019-06-07T06:14:07.461Z,7.30
2019-06-07T06:16:30.146Z,6.92
2019-06-07T06:19:00.496Z,6.08
2019-06-07T06:21:30.876Z,7.50
2019-06-07T06:24:01.079Z,7.90
2019-06-07T06:26:31.402Z,7.97
2019-06-07T06:29:01.793Z,6.70
2019-06-07T06:31:32.080Z,6.87
2019-06-07T06:34:02.463Z,10.25
2019-06-07T06:36:32.765Z,9.93
2019-06-07T06:39:04.817Z,7.10
2019-06-07T06:41:46.193Z,6.62
2019-06-07T06:44:07.287Z,6.25
2019-06-07T06:46:42.408Z,6.03
2019-06-07T06:49:09.482Z,5.78
2019-06-07T06:51:42.069Z,5.87
2019-06-07T06:54:11.690Z,6.10
2019-06-07T06:56:43.977Z,5.10
2019-06-07T06:59:37.511Z,5.20
2019-06-07T07:01:49.423Z,5.47
2019-06-07T07:04:18.062Z,5.53
2019-06-07T07:06:50.477Z,5.28
2019-06-07T07:09:21.060Z,5.37
2019-06-07T07:12:08.849Z,5.40
2019-06-07T07:14:23.285Z,5.33
2019-06-07T07:16:56.017Z,6.53
2019-06-07T07:19:25.652Z,5.90
2019-06-07T07:21:59.079Z,5.35
2019-06-07T07:24:29.275Z,5.20
2019-06-07T07:26:59.486Z,5.12
2019-06-07T07:29:29.760Z,5.25
2019-06-07T07:32:00.050Z,5.03
2019-06-07T07:34:35.642Z,5.45
2019-06-07T07:37:02.491Z,5.40
2019-06-07T07:39:32.689Z,5.22
2019-06-07T07:42:20.309Z,6.10
2019-06-07T07:44:35.075Z,5.92
2019-06-07T07:47:05.513Z,6.40
2019-06-07T07:49:35.885Z,6.17
2019-06-07T07:52:06.198Z,5.60
2019-06-07T07:54:36.479Z,5.55
2019-06-07T07:57:06.902Z,6.35
2019-06-07T07:59:42.150Z,7.65
2019-06-07T08:02:09.234Z,6.55
2019-06-07T08:05:13.659Z,6.30
2019-06-07T08:07:11.442Z,5.55
2019-06-07T08:09:41.713Z,6.20
2019-06-07T08:12:11.967Z,7.00
2019-06-07T08:14:43.174Z,7.30
2019-06-07T08:17:13.435Z,7.78
2019-06-07T08:19:43.807Z,7.62
2019-06-07T08:22:14.037Z,8.13
2019-06-07T08:24:44.292Z,6.40
2019-06-07T08:27:26.081Z,6.37
2019-06-07T08:30:03.728Z,6.72
2019-06-07T08:32:18.592Z,5.40
2019-06-07T08:34:52.453Z,6.00
2019-06-07T08:37:20.955Z,7.50
2019-06-07T08:39:52.855Z,8.50
2019-06-07T08:42:36.555Z,10.05
2019-06-07T08:45:00.986Z,10.25
2019-06-07T08:47:27.341Z,9.18
2019-06-07T08:50:04.362Z,9.20
2019-06-07T08:52:29.601Z,8.70
2019-06-07T08:55:03.375Z,9.48
2019-06-07T08:57:32.976Z,10.15
2019-06-07T09:00:15.940Z,9.18
2019-06-07T09:02:35.868Z,9.43
2019-06-07T09:05:12.318Z,12.75
2019-06-07T09:07:39.326Z,12.98
2019-06-07T09:10:14.377Z,11.95
2019-06-07T09:12:43.427Z,13.20
2019-06-07T09:15:22.975Z,11.88
2019-06-07T09:18:30.075Z,12.73
2019-06-07T09:20:35.790Z,11.28
2019-06-07T09:22:50.929Z,11.38
2019-06-07T09:25:21.875Z,12.25
2019-06-07T09:27:52.304Z,10.35
2019-06-07T09:30:42.397Z,11.20
2019-06-07T09:33:13.683Z,12.15
2019-06-07T09:35:44.469Z,12.80
2019-06-07T09:38:24.739Z,13.15
2019-06-07T09:40:46.727Z,12.07
2019-06-07T09:43:59.720Z,12.10
2019-06-07T09:45:49.176Z,11.68
2019-06-07T09:49:01.275Z,10.48
2019-06-07T09:50:51.464Z,12.47
2019-06-07T09:53:23.426Z,11.70
2019-06-07T09:55:53.991Z,11.10
2019-06-07T09:58:51.336Z,11.70
2019-06-07T10:00:59.171Z,50.08
2019-06-07T10:03:29.269Z,12.43
2019-06-07T10:06:00.376Z,11.78
2019-06-07T10:11:04.728Z,13.65
2019-06-07T10:13:35.180Z,11.68
2019-06-07T10:16:06.975Z,12.37
2019-06-07T10:18:37.627Z,12.63
2019-06-07T10:21:12.187Z,12.55
2019-06-07T10:23:40.116Z,11.18
2019-06-07T10:26:10.488Z,12.23
2019-06-07T10:28:41.912Z,11.33
2019-06-07T10:31:12.473Z,12.00
2019-06-07T10:33:42.860Z,11.57
2019-06-07T10:36:13.147Z,12.30
2019-06-07T10:38:43.460Z,12.25
2019-06-07T10:41:13.713Z,12.18
2019-06-07T10:43:44.072Z,11.57
2019-06-07T10:46:14.363Z,12.10
2019-06-07T10:48:44.685Z,12.43
2019-06-07T10:51:15.078Z,13.20
2019-06-07T10:53:45.463Z,12.30
2019-06-07T10:56:15.749Z,12.73
2019-06-07T10:58:46.144Z,12.13
2019-06-07T11:01:16.494Z,12.73
2019-06-07T11:03:46.798Z,11.70
2019-06-07T11:06:17.211Z,11.73
2019-06-07T11:08:47.491Z,12.55
2019-06-07T11:11:17.804Z,12.28
2019-06-07T11:13:48.015Z,11.63
2019-06-07T11:16:18.241Z,11.68
2019-06-07T11:18:48.545Z,12.55
2019-06-07T11:21:18.797Z,11.68
2019-06-07T11:23:49.016Z,11.83
2019-06-07T11:26:19.279Z,11.43
2019-06-07T11:28:49.636Z,10.68
2019-06-07T11:31:21.064Z,10.95
2019-06-07T11:33:51.313Z,10.80
2019-06-07T11:36:21.592Z,10.35
2019-06-07T11:38:52.555Z,10.63
2019-06-07T11:41:22.895Z,9.98
2019-06-07T11:43:53.150Z,9.23
2019-06-07T11:46:23.428Z,9.75
2019-06-07T11:48:53.681Z,9.95
2019-06-07T11:51:23.980Z,10.40
2019-06-07T11:53:54.215Z,10.08
2019-06-07T11:56:24.450Z,9.38
2019-06-07T11:58:54.838Z,8.28
2019-06-07T12:01:25.213Z,7.92
2019-06-07T12:03:58.619Z,8.40
2019-06-07T12:06:27.789Z,8.20
2019-06-07T12:08:58.073Z,8.75
2019-06-07T12:11:28.456Z,8.13
2019-06-07T12:13:58.752Z,8.10
2019-06-07T12:16:28.988Z,8.35
2019-06-07T12:18:59.276Z,8.95
2019-06-07T12:21:30.457Z,8.53
2019-06-07T12:24:00.801Z,7.28
2019-06-07T12:26:31.149Z,7.78
2019-06-07T12:29:01.480Z,7.08
2019-06-07T12:31:31.747Z,7.30
2019-06-07T12:34:02.038Z,7.28
2019-06-07T12:36:32.328Z,6.53
2019-06-07T12:39:02.596Z,6.33
2019-06-07T12:41:34.202Z,6.50
2019-06-07T12:44:04.913Z,6.75
2019-06-07T12:46:35.279Z,6.33
2019-06-07T12:49:05.723Z,6.25
2019-06-07T12:51:36.060Z,6.45
2019-06-07T12:54:07.476Z,6.17
2019-06-07T12:56:37.762Z,5.87
2019-06-07T12:59:08.034Z,5.83
2019-06-07T13:01:38.311Z,5.60
2019-06-07T13:04:08.698Z,5.40
2019-06-07T13:06:39.056Z,5.30
2019-06-07T13:09:09.367Z,5.25
2019-06-07T13:11:39.716Z,4.83
2019-06-07T13:14:09.905Z,5.67
2019-06-07T13:16:40.243Z,5.40
2019-06-07T13:19:10.498Z,5.17
2019-06-07T13:21:40.750Z,4.33
2019-06-07T13:24:11.909Z,4.65
2019-06-07T13:26:42.196Z,4.75
2019-06-07T13:29:12.471Z,5.17
2019-06-07T13:31:42.725Z,13.13
2019-06-07T13:34:12.923Z,4.42
2019-06-07T13:36:43.170Z,5.22
2019-06-07T13:39:13.555Z,5.58
2019-06-07T13:41:43.928Z,4.53
2019-06-07T13:44:14.329Z,5.08
2019-06-07T13:46:44.578Z,4.75
2019-06-07T13:49:14.765Z,4.58
2019-06-07T13:51:45.038Z,4.67
2019-06-07T13:54:15.303Z,4.97
2019-06-07T13:57:01.519Z,4.50
2019-06-07T13:59:18.576Z,9.53
2019-06-07T14:01:49.134Z,4.78
2019-06-07T14:04:20.805Z,12.20
2019-06-07T14:06:51.227Z,4.83
2019-06-07T14:09:21.478Z,4.65
2019-06-07T14:11:51.732Z,4.40
2019-06-07T14:14:22.107Z,4.33
2019-06-07T14:16:52.461Z,4.30
2019-06-07T14:19:22.718Z,3.90
2019-06-07T14:21:53.000Z,4.20
2019-06-07T14:24:23.254Z,4.45
2019-06-07T14:27:08.684Z,4.00
2019-06-07T14:29:39.255Z,4.45
2019-06-07T14:32:10.450Z,10.48
2019-06-07T14:34:40.667Z,3.95
2019-06-07T14:37:11.971Z,4.20
2019-06-07T14:39:42.236Z,4.20
2019-06-07T14:42:12.610Z,4.10
2019-06-07T14:44:42.976Z,4.30
2019-06-07T14:47:13.321Z,4.20
2019-06-07T14:49:43.590Z,4.83
2019-06-07T14:52:13.893Z,4.40
2019-06-07T14:54:44.267Z,4.25
2019-06-07T14:57:14.519Z,4.28
2019-06-07T14:59:44.729Z,4.30
2019-06-07T15:02:15.078Z,4.10
2019-06-07T15:04:47.294Z,3.90
2019-06-07T15:07:17.561Z,4.53
2019-06-07T15:09:47.831Z,4.95
2019-06-07T15:12:24.911Z,4.53
2019-06-07T15:14:49.964Z,4.28
2019-06-07T15:17:20.381Z,4.30
2019-06-07T15:19:51.716Z,4.20
2019-06-07T15:22:22.091Z,4.37
2019-06-07T15:24:52.310Z,4.30
2019-06-07T15:27:22.543Z,3.70
2019-06-07T15:29:52.873Z,4.05
2019-06-07T15:32:23.065Z,4.60
2019-06-07T15:34:53.344Z,4.25
2019-06-07T15:37:23.537Z,4.83
2019-06-07T15:39:53.807Z,4.60
2019-06-07T15:42:37.867Z,4.58
2019-06-07T15:44:56.191Z,5.55
2019-06-07T15:47:26.553Z,5.17
2019-06-07T15:49:56.748Z,4.50
2019-06-07T15:52:26.951Z,4.10
2019-06-07T15:54:57.143Z,4.50
2019-06-07T15:57:27.558Z,4.67
2019-06-07T15:59:57.892Z,4.28
2019-06-07T16:02:28.097Z,4.17
2019-06-07T16:04:58.478Z,4.00
2019-06-07T16:07:28.676Z,3.62
2019-06-07T16:09:58.947Z,4.17
2019-06-07T16:12:30.108Z,3.50
2019-06-07T16:15:00.412Z,3.45
2019-06-07T16:17:30.662Z,3.42
2019-06-07T16:20:01.064Z,3.42
2019-06-07T16:22:31.519Z,3.95
2019-06-07T16:25:01.747Z,3.52
2019-06-07T16:27:32.264Z,4.10
2019-06-07T16:30:08.942Z,3.67
2019-06-07T16:32:37.061Z,3.98
2019-06-07T16:35:08.106Z,3.85
2019-06-07T16:37:38.553Z,3.42
2019-06-07T16:40:09.420Z,4.00
2019-06-07T16:42:40.648Z,3.70
2019-06-07T16:45:14.078Z,4.00
2019-06-07T16:47:47.468Z,3.95
2019-06-07T16:50:16.540Z,3.87
2019-06-07T16:52:48.435Z,4.10
2019-06-07T16:55:19.983Z,3.95
2019-06-07T16:57:50.191Z,4.60
2019-06-07T17:00:21.075Z,4.20
2019-06-07T17:02:51.406Z,4.47
2019-06-07T17:05:21.786Z,3.80
2019-06-07T17:07:52.344Z,4.20
2019-06-07T17:10:22.695Z,3.77
2019-06-07T17:12:52.999Z,4.00
2019-06-07T17:15:24.185Z,3.50
2019-06-07T17:17:56.938Z,4.30
2019-06-07T17:20:27.200Z,4.33
2019-06-07T17:22:57.492Z,4.05
2019-06-07T17:25:27.845Z,4.05
2019-06-07T17:27:58.032Z,3.98
2019-06-07T17:30:28.409Z,3.80
2019-06-07T17:32:59.619Z,3.95
2019-06-07T17:35:30.059Z,3.77
2019-06-07T17:38:00.322Z,4.35
2019-06-07T17:40:30.591Z,3.60
2019-06-07T17:43:00.806Z,3.75
2019-06-07T17:45:31.216Z,3.83
2019-06-07T17:48:01.547Z,3.90
2019-06-07T17:50:31.863Z,4.00
2019-06-07T17:53:02.183Z,3.20
2019-06-07T17:55:32.696Z,3.95
2019-06-07T17:58:02.877Z,3.75
2019-06-07T18:00:52.898Z,4.08
2019-06-07T18:03:23.528Z,3.60
2019-06-07T18:05:54.323Z,3.83
2019-06-07T18:08:25.500Z,4.12
2019-06-07T18:10:55.811Z,3.47
2019-06-07T18:13:25.999Z,4.15
2019-06-07T18:15:59.488Z,3.70
2019-06-07T18:18:28.344Z,4.15
2019-06-07T18:20:58.543Z,3.58
2019-06-07T18:23:28.719Z,3.60
2019-06-07T18:25:59.039Z,3.72
2019-06-07T18:28:29.246Z,3.83
2019-06-07T18:30:59.436Z,3.65
2019-06-07T18:33:29.631Z,3.70
2019-06-07T18:36:00.923Z,3.95
2019-06-07T18:38:31.276Z,3.85
2019-06-07T18:41:01.512Z,4.17
2019-06-07T18:43:31.835Z,3.90
2019-06-07T18:46:02.039Z,3.42
2019-06-07T18:48:32.304Z,3.70
2019-06-07T18:51:02.774Z,3.87
2019-06-07T18:53:33.047Z,3.50
2019-06-07T18:56:03.379Z,3.65
2019-06-07T18:58:33.712Z,3.45
2019-06-07T19:01:04.071Z,3.62
2019-06-07T19:03:34.422Z,3.60
2019-06-07T19:06:04.780Z,3.60
2019-06-07T19:08:34.974Z,3.35
2019-06-07T19:11:05.365Z,3.40
2019-06-07T19:13:35.640Z,3.90
2019-06-07T19:16:05.994Z,3.65
2019-06-07T19:18:36.397Z,3.55
2019-06-07T19:21:06.708Z,3.60
2019-06-07T19:23:36.976Z,3.58
2019-06-07T19:26:07.336Z,3.98
2019-06-07T19:28:37.625Z,4.03
2019-06-07T19:31:07.921Z,3.47
2019-06-07T19:33:48.784Z,3.50
2019-06-07T19:36:10.128Z,4.17
2019-06-07T19:38:40.434Z,3.65
2019-06-07T19:41:19.270Z,3.95
2019-06-07T19:43:42.785Z,3.83
2019-06-07T19:46:12.988Z,4.10
2019-06-07T19:48:44.157Z,4.17
2019-06-07T19:51:14.516Z,3.65
2019-06-07T19:53:44.735Z,3.92
2019-06-07T19:56:15.120Z,3.60
2019-06-07T19:58:45.472Z,3.83
2019-06-07T20:01:15.781Z,3.85
2019-06-07T20:03:48.970Z,3.80
2019-06-07T20:06:17.892Z,3.62
2019-06-07T20:08:48.267Z,26.52
2019-06-07T20:11:18.679Z,4.30
2019-06-07T20:13:48.871Z,3.50
2019-06-07T20:16:19.159Z,3.70
2019-06-07T20:18:49.385Z,3.70
2019-06-07T20:21:19.729Z,4.03
2019-06-07T20:23:49.967Z,4.03
2019-06-07T20:26:20.243Z,5.00
2019-06-07T20:28:50.536Z,5.40
2019-06-07T20:31:20.821Z,4.75
2019-06-07T20:33:51.093Z,6.05
2019-06-07T20:36:21.371Z,5.12
2019-06-07T20:38:51.585Z,4.30
2019-06-07T20:41:21.795Z,4.53
2019-06-07T20:43:51.995Z,4.67
2019-06-07T20:46:22.208Z,4.60
2019-06-07T20:48:52.528Z,4.53
2019-06-07T20:51:22.891Z,4.40
2019-06-07T20:53:53.195Z,4.72
2019-06-07T20:56:24.643Z,5.83
2019-06-07T20:58:54.919Z,4.65
2019-06-07T21:01:25.302Z,4.75
2019-06-07T21:03:55.491Z,4.58
2019-06-07T21:06:25.862Z,4.78
2019-06-07T21:08:56.191Z,4.62
2019-06-07T21:11:26.531Z,5.08
2019-06-07T21:13:56.760Z,5.28
2019-06-07T21:16:27.051Z,5.53
2019-06-07T21:18:57.277Z,6.05
2019-06-07T21:21:27.575Z,5.55
2019-06-07T21:23:57.760Z,6.25
2019-06-07T21:26:27.951Z,6.15
2019-06-07T21:28:58.163Z,5.90
2019-06-07T21:31:28.487Z,5.97
2019-06-07T21:33:58.678Z,5.47
2019-06-07T21:36:28.898Z,6.08
2019-06-07T21:38:59.163Z,5.67
2019-06-07T21:41:30.140Z,5.65
2019-06-07T21:44:00.486Z,5.90
2019-06-07T21:46:30.847Z,5.60
2019-06-07T21:49:02.170Z,5.92
2019-06-07T21:51:32.597Z,5.80
2019-06-07T21:54:06.296Z,6.08
2019-06-07T21:56:34.859Z,5.65
2019-06-07T21:59:05.221Z,5.60
2019-06-07T22:01:36.007Z,5.53
2019-06-07T22:04:07.506Z,5.35
2019-06-07T22:06:37.758Z,5.12
2019-06-07T22:09:09.964Z,5.08
2019-06-07T22:11:40.361Z,5.25
2019-06-07T22:14:10.796Z,4.12
2019-06-07T22:16:41.084Z,3.52
2019-06-07T22:19:12.632Z,4.12
2019-06-07T22:21:43.925Z,3.60
2019-06-07T22:24:15.135Z,3.17
2019-06-07T22:26:45.556Z,2.95
2019-06-07T22:29:15.851Z,2.62
2019-06-07T22:31:46.134Z,2.30
2019-06-07T22:34:16.400Z,2.55
2019-06-07T22:36:46.741Z,2.45
2019-06-07T22:39:17.920Z,2.42
2019-06-07T22:41:48.283Z,2.30
2019-06-07T22:44:19.322Z,2.40
2019-06-07T22:46:49.662Z,2.20
2019-06-07T22:49:20.034Z,2.40
2019-06-07T22:51:50.226Z,1.80
2019-06-07T22:54:20.488Z,2.33
2019-06-07T22:56:58.292Z,2.42
2019-06-07T22:59:28.475Z,1.80
2019-06-07T23:01:58.753Z,2.45
2019-06-07T23:04:28.960Z,2.27
2019-06-07T23:06:59.259Z,2.10
2019-06-07T23:09:29.459Z,2.20
2019-06-07T23:11:59.736Z,2.20
2019-06-07T23:14:30.021Z,2.30
2019-06-07T23:17:00.284Z,2.02
2019-06-07T23:19:30.493Z,2.10
2019-06-07T23:22:01.734Z,2.05
2019-06-07T23:24:31.956Z,2.33
2019-06-07T23:27:02.147Z,2.12
2019-06-07T23:29:32.352Z,2.20
2019-06-07T23:32:02.615Z,2.10
2019-06-07T23:34:32.806Z,2.00
2019-06-07T23:37:03.236Z,1.60
2019-06-07T23:39:33.612Z,1.82
2019-06-07T23:42:03.843Z,2.20
2019-06-07T23:44:34.122Z,1.67
2019-06-07T23:47:11.204Z,1.77
2019-06-07T23:49:36.628Z,1.82
2019-06-07T23:52:06.904Z,1.90
2019-06-07T23:54:37.268Z,1.90
2019-06-07T23:57:07.559Z,2.08
2019-06-07T23:59:37.773Z,1.70
